This is the latest recevied weather packets stored in our database for station/object KT1D-13. If no packets are shown the sender has not sent any weather packets the latest 10 day(s).
| Time | Temp. | Humidity | Pressure | Rain* | Wind** | Luminosity | Snow |
|---|---|---|---|---|---|---|---|
| 1777829117 | 10.56° C | 53% | 1005.6 hPa | 0 mm | - | 479 W/m² | - |
| 1777828518 | 10° C | 52% | 1005.6 hPa | 0 mm | - | 502 W/m² | - |
| 1777826738 | 8.89° C | 56% | 1005.6 hPa | 0 mm | - | 310 W/m² | - |
| 1777826118 | 8.33° C | 58% | 1005.6 hPa | 0 mm | - | 246 W/m² | - |
| 1777815317 | 5.56° C | 87% | 1006 hPa | 0 mm | - | 125 W/m² | - |
| 1777812921 | 6.67° C | 80% | 1006 hPa | 0 mm | - | 133 W/m² | - |
| 1777806924 | 5.56° C | 81% | 1006.5 hPa | 0 mm | - | 56 W/m² | - |
| 1777791927 | 7.22° C | 85% | 1007.9 hPa | 0 mm | - | 0 W/m² | - |
| 1777789527 | 7.78° C | 83% | 1008.5 hPa | 0 mm | - | 0 W/m² | - |
| 1777787727 | 7.78° C | 82% | 1009.1 hPa | 0 mm | - | 0 W/m² | - |
| 1777781730 | 8.89° C | 83% | 1009.8 hPa | 0 mm | - | 0 W/m² | - |
| 1777780570 | 8.89° C | 85% | 1009.8 hPa | 0 mm | - | 0 W/m² | - |
| 1777779917 | 8.89° C | 86% | 1009.8 hPa | 0 mm | - | 0 W/m² | - |
| 1777776330 | 9.44° C | 86% | 1009.9 hPa | 0 mm | - | 0 W/m² | - |
| 1777772718 | 10° C | 84% | 1010.4 hPa | 0 mm | - | 0 W/m² | - |
| 1777764341 | 11.11° C | 77% | 1009.6 hPa | 0 mm | - | 28 W/m² | - |
| 1777760742 | 11.11° C | 75% | 1009.6 hPa | 0 mm | - | 38 W/m² | - |
| 1777756520 | 12.22° C | 66% | 1009.4 hPa | 0 mm | - | 92 W/m² | - |
| 1777752918 | 12.78° C | 63% | 1009.6 hPa | 0 mm | - | 525 W/m² | - |
| 1777746916 | 12.22° C | 65% | 1010.3 hPa | 0 mm | - | 547 W/m² | - |
| 1777746319 | 12.22° C | 63% | 1010.2 hPa | 0 mm | - | 424 W/m² | - |
| 1777739127 | 11.67° C | 78% | 1010.9 hPa | 0 mm | - | 265 W/m² | - |
| 1777734338 | 10° C | 83% | 1011.3 hPa | 0 mm | - | 531 W/m² | - |
| 1777729529 | 7.78° C | 90% | 1011.8 hPa | 0 mm | - | 290 W/m² | - |
| 1777725330 | 8.33° C | 89% | 1012.1 hPa | 0 mm | - | 92 W/m² | - |
* Rain latest hour (hover to see other rain measurements)
** Current wind speed in m/s (hover to see current wind gust speed)